Time;durP1;ratioP1;P1;durP2;ratioP2;P2;SDS_P1;SDS_P2;PMS_P1;PMS_P2;Temp;Humidity;BMP_temperature;BMP_pressure;BME280_temperature;BME280_humidity;BME280_pressure;Samples;Min_cycle;Max_cycle;Signal;HPM_P1;HPM_P2
2021/08/01 00:01:05;;;;;;;9.83;8.20;;;;;;;20.45;80.07;99946.63;1701488;83;21076;-72
2021/08/01 00:03:32;;;;;;;9.23;8.33;;;;;;;20.46;80.05;99946.06;1700066;83;21061;-73
2021/08/01 00:05:58;;;;;;;11.03;8.77;;;;;;;20.45;80.08;99945.84;1697246;83;21129;-73
2021/08/01 00:08:26;;;;;;;10.77;8.67;;;;;;;20.44;80.22;99949.69;1681836;83;21000;-72
2021/08/01 00:10:57;;;;;;;9.43;8.43;;;;;;;20.44;80.30;99958.62;1711799;83;21521;-72
2021/08/01 00:13:25;;;;;;;11.13;8.70;;;;;;;20.45;80.34;99957.48;1701632;82;21540;-72
2021/08/01 00:15:52;;;;;;;10.50;8.43;;;;;;;20.47;80.26;99950.38;1698984;83;21083;-73
2021/08/01 00:18:19;;;;;;;9.47;8.47;;;;;;;20.47;80.24;99949.80;1701792;83;21050;-73
2021/08/01 00:20:46;;;;;;;9.10;8.07;;;;;;;20.50;80.22;99949.67;1677401;84;21423;-73
2021/08/01 00:23:13;;;;;;;10.60;9.10;;;;;;;20.51;80.14;99950.73;1693816;82;21185;-73
2021/08/01 00:25:40;;;;;;;10.43;8.70;;;;;;;20.53;80.10;99953.09;1686622;83;20952;-73
2021/08/01 00:28:07;;;;;;;13.40;8.80;;;;;;;20.53;79.98;99942.24;1675908;83;21199;-73
2021/08/01 00:30:34;;;;;;;10.13;8.70;;;;;;;20.54;79.92;99941.13;1673160;84;21008;-72
2021/08/01 00:33:01;;;;;;;10.20;8.10;;;;;;;20.54;79.91;99947.92;1698311;82;21088;-72
2021/08/01 00:35:28;;;;;;;12.13;8.77;;;;;;;20.55;79.84;99946.78;1683861;83;21549;-72
2021/08/01 00:37:56;;;;;;;11.17;8.60;;;;;;;20.52;79.70;99941.45;1693681;84;21059;-72
2021/08/01 00:40:23;;;;;;;14.17;8.63;;;;;;;20.51;79.61;99941.23;1697943;82;21610;-71
2021/08/01 00:42:50;;;;;;;10.23;8.60;;;;;;;20.50;79.63;99938.28;1705098;82;21017;-71
2021/08/01 00:45:17;;;;;;;9.63;8.57;;;;;;;20.50;79.58;99935.56;1681078;83;21531;-72
2021/08/01 00:47:44;;;;;;;10.13;8.67;;;;;;;20.48;79.59;99937.03;1694644;83;21488;-71
2021/08/01 00:50:13;;;;;;;10.43;8.43;;;;;;;20.47;79.65;99940.87;1705817;83;21548;-71
2021/08/01 00:52:40;;;;;;;10.43;8.60;;;;;;;20.45;79.75;99944.48;1690244;83;21678;-72
2021/08/01 00:55:10;;;;;;;12.70;9.53;;;;;;;20.43;79.82;99946.16;1696758;82;21544;-72
2021/08/01 00:57:38;;;;;;;12.78;9.05;;;;;;;20.42;79.86;99940.52;1699013;83;21629;-72
2021/08/01 01:00:24;;;;;;;12.97;9.37;;;;;;;20.43;79.89;99942.66;1702323;83;21644;-71
2021/08/01 01:02:41;;;;;;;12.83;9.03;;;;;;;20.43;79.83;99945.38;1689421;82;21025;-72
2021/08/01 01:05:25;;;;;;;10.90;9.33;;;;;;;20.41;79.81;99945.73;1681783;83;21091;-72
2021/08/01 01:08:07;;;;;;;10.47;9.40;;;;;;;20.41;79.78;99937.59;1693769;84;21028;-72
2021/08/01 01:10:54;;;;;;;13.33;9.50;;;;;;;20.39;79.71;99933.84;1694456;83;21651;-73
2021/08/01 01:13:28;;;;;;;12.00;9.38;;;;;;;20.39;79.70;99937.12;1710163;83;21112;-73
2021/08/01 01:15:59;;;;;;;13.67;9.67;;;;;;;20.39;79.69;99936.55;1681732;83;21024;-73
2021/08/01 01:18:29;;;;;;;12.27;9.83;;;;;;;20.38;79.65;99940.41;1661154;85;21077;-73
2021/08/01 01:21:33;;;;;;;12.60;9.93;;;;;;;20.39;79.81;99950.12;1682388;85;21056;-72
2021/08/01 01:24:05;;;;;;;11.33;9.30;;;;;;;20.37;80.01;99937.48;1694524;84;21131;-71
2021/08/01 01:27:02;;;;;;;12.23;9.60;;;;;;;20.36;80.13;99950.79;1678510;83;21177;-71
2021/08/01 01:29:43;;;;;;;11.33;9.77;;;;;;;20.35;80.29;99945.14;1690963;84;21099;-72
2021/08/01 01:32:15;;;;;;;13.18;9.43;;;;;;;20.35;80.49;99931.59;1666829;84;21038;-71
2021/08/01 01:34:45;;;;;;;;;;;;;;;20.35;80.72;99929.44;1630181;86;21741;-71
2021/08/01 01:37:15;;;;;;;10.50;9.40;;;;;;;20.37;80.89;99928.55;1647992;85;20178;-71
2021/08/01 01:39:42;;;;;;;13.60;10.07;;;;;;;20.36;81.11;99929.09;1699313;83;21839;-71
2021/08/01 01:42:12;;;;;;;14.03;10.40;;;;;;;20.37;81.26;99932.63;1688124;83;21076;-71
2021/08/01 01:44:44;;;;;;;12.80;10.33;;;;;;;20.39;81.34;99924.92;1690788;84;21048;-72
2021/08/01 01:47:14;;;;;;;11.20;10.00;;;;;;;20.39;81.42;99925.70;1688116;83;21112;-71
2021/08/01 01:49:41;;;;;;;10.97;9.87;;;;;;;20.36;81.69;99919.59;1680192;85;21582;-72
2021/08/01 01:52:14;;;;;;;14.13;10.57;;;;;;;20.32;81.77;99922.77;1686135;84;21830;-71
2021/08/01 01:54:43;;;;;;;12.57;10.63;;;;;;;20.28;81.76;99921.08;1685761;83;21536;-69
2021/08/01 01:57:09;;;;;;;13.37;9.93;;;;;;;20.25;81.76;99918.47;1663963;84;21154;-69
2021/08/01 01:59:39;;;;;;;12.60;10.37;;;;;;;20.20;81.62;99907.83;1681284;84;21056;-68
2021/08/01 02:02:08;;;;;;;17.70;11.10;;;;;;;20.14;81.62;99905.14;1675227;83;21172;-69
2021/08/01 02:04:36;;;;;;;13.47;10.63;;;;;;;20.09;81.58;99908.05;1685290;84;21080;-68
2021/08/01 02:07:22;;;;;;;11.70;10.50;;;;;;;20.07;81.84;99913.01;1671980;83;21617;-69
2021/08/01 02:10:08;;;;;;;11.80;10.30;;;;;;;20.04;82.07;99910.97;1676376;85;21126;-69
2021/08/01 02:12:44;;;;;;;11.67;10.33;;;;;;;20.04;82.13;99912.32;1680961;84;21015;-69
2021/08/01 02:15:18;;;;;;;11.60;10.40;;;;;;;20.05;82.27;99909.86;1696671;82;21072;-69
2021/08/01 02:18:00;;;;;;;13.10;10.47;;;;;;;20.05;82.22;99904.44;1688637;84;21116;-69
2021/08/01 02:20:44;;;;;;;14.07;11.20;;;;;;;20.06;82.22;99904.66;1671459;84;21171;-68
2021/08/01 02:23:27;;;;;;;14.13;10.83;;;;;;;20.06;82.36;99904.09;1687867;84;21039;-68
2021/08/01 02:25:54;;;;;;;11.50;10.23;;;;;;;20.08;82.59;99894.28;1675347;83;21639;-68
2021/08/01 02:28:23;;;;;;;12.90;10.30;;;;;;;20.08;82.64;99895.06;1697376;83;21061;-69
2021/08/01 02:30:51;;;;;;;11.27;10.07;;;;;;;20.10;82.64;99894.17;1681533;84;21838;-69
2021/08/01 02:33:18;;;;;;;12.00;10.80;;;;;;;20.11;82.77;99894.39;1693638;83;21718;-69
2021/08/01 02:35:45;;;;;;;11.73;10.57;;;;;;;20.15;82.85;99897.22;1668170;84;21609;-69
2021/08/01 02:38:13;;;;;;;11.40;10.20;;;;;;;20.18;83.01;99901.97;1681812;83;21115;-68
2021/08/01 02:40:40;;;;;;;11.83;10.37;;;;;;;20.20;83.26;99896.20;1680505;84;21102;-69
2021/08/01 02:43:10;;;;;;;12.07;10.50;;;;;;;20.23;83.37;99898.23;1673428;83;21469;-69
2021/08/01 02:45:40;;;;;;;12.63;11.05;;;;;;;20.24;83.42;99893.84;1688369;83;27499;-69
2021/08/01 02:48:08;;;;;;;11.73;10.50;;;;;;;20.27;83.58;99899.95;1689641;83;21165;-70
2021/08/01 02:50:37;;;;;;;11.67;10.13;;;;;;;20.32;83.92;99894.29;1678367;83;21048;-68
2021/08/01 02:53:13;;;;;;;12.53;10.30;;;;;;;20.34;84.13;99891.26;1672304;84;21653;-69
2021/08/01 02:55:43;;;;;;;11.87;10.67;;;;;;;20.36;84.32;99889.77;1680709;83;21128;-68
2021/08/01 02:58:10;;;;;;;12.20;10.13;;;;;;;20.37;84.50;99896.80;1701154;83;21061;-69
2021/08/01 03:00:41;;;;;;;13.13;10.50;;;;;;;20.38;84.83;99898.36;1699422;83;21099;-69
2021/08/01 03:03:09;;;;;;;12.43;9.97;;;;;;;20.41;84.96;99896.91;1673747;84;21004;-69
2021/08/01 03:05:38;;;;;;;11.20;10.13;;;;;;;20.44;85.02;99903.58;1691880;82;21088;-69
2021/08/01 03:08:06;;;;;;;12.10;10.80;;;;;;;20.45;84.98;99903.23;1697987;83;21185;-70
2021/08/01 03:10:34;;;;;;;13.77;10.60;;;;;;;20.47;84.80;99903.69;1695544;83;21057;-69
2021/08/01 03:13:02;;;;;;;12.00;10.60;;;;;;;20.53;84.75;99897.48;1684543;84;21071;-69
2021/08/01 03:15:30;;;;;;;12.23;10.47;;;;;;;20.58;84.66;99898.05;1693024;82;21090;-70
2021/08/01 03:17:57;;;;;;;14.07;10.83;;;;;;;20.63;84.65;99901.09;1686151;84;21083;-69
2021/08/01 03:20:25;;;;;;;13.40;10.87;;;;;;;20.65;84.42;99905.62;1698924;83;21162;-69
2021/08/01 03:22:56;;;;;;;12.82;10.70;;;;;;;20.69;84.15;99913.30;1686650;84;20992;-69
2021/08/01 03:25:24;;;;;;;11.60;10.03;;;;;;;20.72;83.95;99918.63;1668106;85;21067;-68
2021/08/01 03:27:51;;;;;;;13.13;9.93;;;;;;;20.74;83.77;99915.80;1692484;84;21599;-69
2021/08/01 03:30:18;;;;;;;13.90;10.23;;;;;;;20.77;83.43;99919.19;1680349;83;21540;-69
2021/08/01 03:32:45;;;;;;;12.30;10.37;;;;;;;20.80;83.19;99925.30;1689734;83;21081;-68
2021/08/01 03:35:12;;;;;;;13.70;10.40;;;;;;;20.87;82.93;99928.01;1660428;83;21100;-69
2021/08/01 03:37:40;;;;;;;13.87;10.23;;;;;;;20.92;82.48;99925.05;1701199;82;21112;-68
2021/08/01 03:40:17;;;;;;;11.83;10.37;;;;;;;20.98;82.06;99924.47;1660496;85;21043;-69
2021/08/01 03:42:44;;;;;;;13.43;10.90;;;;;;;21.08;81.70;99924.56;1709807;83;21050;-69
2021/08/01 03:45:11;;;;;;;12.93;11.03;;;;;;;21.20;81.42;99926.47;1708679;83;21550;-69
2021/08/01 03:47:38;;;;;;;14.27;10.63;;;;;;;21.33;81.44;99923.95;1693287;83;21044;-69
2021/08/01 03:50:06;;;;;;;12.43;10.63;;;;;;;21.45;81.02;99919.84;1699086;83;21070;-69
2021/08/01 03:52:33;;;;;;;11.90;10.37;;;;;;;21.59;80.52;99929.55;1697728;83;21062;-69
2021/08/01 03:54:59;;;;;;;10.60;9.47;;;;;;;21.72;80.30;99925.64;1692843;83;21019;-69
2021/08/01 03:57:26;;;;;;;11.20;9.77;;;;;;;21.85;80.07;99931.78;1703378;83;21489;-69
2021/08/01 03:59:53;;;;;;;11.43;9.73;;;;;;;21.95;80.08;99936.73;1708023;83;21055;-69
2021/08/01 04:02:20;;;;;;;11.90;9.67;;;;;;;22.04;79.95;99940.06;1690678;83;21058;-69
2021/08/01 04:04:46;;;;;;;11.33;9.97;;;;;;;22.13;79.97;99948.85;1691891;83;21070;-69
2021/08/01 04:07:13;;;;;;;13.40;10.13;;;;;;;22.23;79.89;99947.58;1694871;83;21047;-68
2021/08/01 04:09:39;;;;;;;10.73;9.73;;;;;;;22.31;79.68;99943.09;1697263;83;21160;-69
2021/08/01 04:12:07;;;;;;;10.50;9.47;;;;;;;22.43;79.60;99951.97;1708438;83;21014;-68
2021/08/01 04:14:34;;;;;;;10.93;9.83;;;;;;;22.55;79.32;99947.02;1695408;83;21110;-69
2021/08/01 04:17:03;;;;;;;10.93;9.27;;;;;;;22.65;78.80;99953.86;1695085;82;21106;-69
2021/08/01 04:19:30;;;;;;;12.97;10.43;;;;;;;22.75;78.55;99947.08;1709052;83;21054;-69
2021/08/01 04:21:56;;;;;;;11.87;9.77;;;;;;;22.82;77.83;99947.23;1710261;83;21535;-68
2021/08/01 04:24:23;;;;;;;12.23;10.00;;;;;;;22.96;77.02;99956.33;1718219;83;21020;-69
2021/08/01 04:26:50;;;;;;;10.60;9.50;;;;;;;23.08;76.58;99958.37;1696928;83;21584;-69
2021/08/01 04:29:18;;;;;;;11.63;10.43;;;;;;;23.23;75.60;99957.30;1690636;83;21475;-69
2021/08/01 04:31:46;;;;;;;10.63;9.53;;;;;;;23.35;75.06;99961.27;1704892;83;21069;-69
2021/08/01 04:34:13;;;;;;;12.63;9.83;;;;;;;23.45;74.72;99962.06;1691539;83;21149;-69
2021/08/01 04:36:41;;;;;;;10.60;9.57;;;;;;;23.53;74.55;99962.44;1692314;83;21001;-69
2021/08/01 04:39:08;;;;;;;10.70;9.53;;;;;;;23.58;74.00;99968.95;1691485;83;21541;-69
2021/08/01 04:41:35;;;;;;;12.00;10.50;;;;;;;23.69;73.52;99976.58;1690563;83;20999;-69
2021/08/01 04:44:02;;;;;;;11.27;10.03;;;;;;;23.75;72.78;99972.41;1698648;83;21266;-68
2021/08/01 04:46:30;;;;;;;11.83;10.17;;;;;;;23.84;72.33;99968.32;1698893;82;22404;-69
2021/08/01 04:48:57;;;;;;;13.07;9.77;;;;;;;23.95;71.80;99975.33;1711664;83;21031;-69
2021/08/01 04:51:23;;;;;;;11.13;10.00;;;;;;;24.05;71.56;99963.85;1697842;83;21043;-70
2021/08/01 04:53:51;;;;;;;11.33;9.90;;;;;;;24.15;71.21;99962.44;1705442;82;21654;-68
2021/08/01 04:56:18;;;;;;;11.63;10.33;;;;;;;24.25;70.70;99971.41;1697502;83;21000;-69
2021/08/01 04:58:45;;;;;;;11.27;9.77;;;;;;;24.32;70.47;99966.66;1707920;83;21442;-69
2021/08/01 05:01:15;;;;;;;12.20;9.87;;;;;;;24.40;70.30;99977.89;1698353;82;21103;-68
2021/08/01 05:03:42;;;;;;;11.53;9.88;;;;;;;24.48;69.92;99970.63;1699583;83;21007;-69
2021/08/01 05:06:10;;;;;;;13.97;9.87;;;;;;;24.54;69.53;99964.50;1698710;83;20972;-69
2021/08/01 05:08:38;;;;;;;10.67;9.40;;;;;;;24.61;69.81;99956.21;1700598;82;20932;-69
2021/08/01 05:11:05;;;;;;;11.43;10.27;;;;;;;24.66;70.11;99960.80;1699084;83;21367;-69
2021/08/01 05:13:31;;;;;;;11.30;9.90;;;;;;;24.71;69.77;99960.49;1694772;83;21115;-69
2021/08/01 05:15:58;;;;;;;11.13;10.03;;;;;;;24.80;69.12;99961.58;1690127;83;21535;-69
2021/08/01 05:18:26;;;;;;;11.10;9.97;;;;;;;24.86;68.79;99956.60;1698571;83;21022;-69
2021/08/01 05:20:53;;;;;;;12.37;9.73;;;;;;;24.93;68.46;99953.39;1695063;83;21098;-69
2021/08/01 05:23:20;;;;;;;11.70;9.50;;;;;;;25.02;68.34;99952.55;1699876;83;21140;-70
2021/08/01 05:25:46;;;;;;;11.37;10.00;;;;;;;25.14;67.58;99946.66;1712270;83;21051;-70
2021/08/01 05:28:15;;;;;;;10.67;9.57;;;;;;;25.17;66.82;99939.09;1695778;83;21434;-69
2021/08/01 05:30:41;;;;;;;11.47;9.77;;;;;;;25.22;66.47;99936.05;1701784;83;21066;-69
2021/08/01 05:33:10;;;;;;;10.77;9.70;;;;;;;25.32;66.39;99937.34;1699505;83;21055;-69
2021/08/01 05:35:38;;;;;;;10.70;9.60;;;;;;;25.40;65.70;99932.16;1699130;83;21149;-69
2021/08/01 05:38:05;;;;;;;10.47;9.30;;;;;;;25.52;65.34;99935.23;1696873;82;21028;-69
2021/08/01 05:40:32;;;;;;;10.00;9.00;;;;;;;25.62;65.59;99947.66;1698098;83;21070;-69
2021/08/01 05:43:02;;;;;;;10.00;8.67;;;;;;;25.72;65.49;99961.25;1712167;83;21708;-69
2021/08/01 05:45:29;;;;;;;9.87;8.50;;;;;;;25.84;65.03;99962.40;1696878;83;21007;-69
2021/08/01 05:47:57;;;;;;;10.67;8.60;;;;;;;25.96;64.77;99959.96;1695519;82;21153;-69
2021/08/01 05:50:23;;;;;;;11.37;9.17;;;;;;;26.05;64.29;99963.77;1696312;83;21083;-68
2021/08/01 05:52:51;;;;;;;10.93;8.97;;;;;;;26.10;64.61;99956.02;1695974;83;21075;-69
2021/08/01 05:55:18;;;;;;;10.03;8.97;;;;;;;26.13;64.57;99952.53;1702968;83;21569;-69
2021/08/01 05:57:45;;;;;;;11.37;9.40;;;;;;;26.15;64.83;99954.87;1694454;83;21097;-69
2021/08/01 06:00:13;;;;;;;12.50;9.60;;;;;;;26.06;64.60;99954.39;1698101;83;22129;-70
2021/08/01 06:02:40;;;;;;;12.30;9.27;;;;;;;25.99;64.29;99946.90;1713057;83;21039;-70
2021/08/01 06:05:08;;;;;;;14.00;9.73;;;;;;;25.99;64.19;99947.48;1694346;83;21051;-70
2021/08/01 06:07:35;;;;;;;9.67;8.57;;;;;;;26.02;64.35;99947.52;1696951;83;21106;-69
2021/08/01 06:10:03;;;;;;;11.13;8.77;;;;;;;26.05;64.11;99955.56;1702799;83;21545;-69
2021/08/01 06:12:30;;;;;;;11.20;8.80;;;;;;;26.07;63.68;99956.77;1692659;83;21122;-70
2021/08/01 06:14:57;;;;;;;11.87;8.90;;;;;;;26.13;63.00;99959.38;1702485;83;21083;-69
2021/08/01 06:17:23;;;;;;;10.77;8.73;;;;;;;26.23;62.55;99957.90;1696666;83;21678;-69
2021/08/01 06:19:55;;;;;;;12.73;9.40;;;;;;;26.30;61.98;99954.44;1700063;83;21043;-69
2021/08/01 06:22:24;;;;;;;14.63;9.55;;;;;;;26.38;61.79;99956.05;1702472;83;21142;-69
2021/08/01 06:24:51;;;;;;;11.87;9.67;;;;;;;26.49;61.40;99953.42;1699597;83;21458;-69
2021/08/01 06:27:18;;;;;;;12.30;9.33;;;;;;;26.58;60.64;99961.52;1697576;83;21105;-69
2021/08/01 06:29:45;;;;;;;12.57;9.70;;;;;;;26.73;60.55;99964.39;1696148;83;20932;-68
2021/08/01 06:32:11;;;;;;;13.77;9.87;;;;;;;26.85;60.12;99962.13;1697558;83;21482;-69
2021/08/01 06:34:38;;;;;;;13.60;10.00;;;;;;;26.93;59.55;99962.95;1694977;83;21160;-70
2021/08/01 06:37:05;;;;;;;11.30;9.90;;;;;;;27.01;59.67;99967.88;1674632;85;22099;-70
2021/08/01 06:39:32;;;;;;;12.17;9.73;;;;;;;27.12;59.38;99966.78;1683994;83;21056;-70
2021/08/01 06:41:59;;;;;;;12.07;9.73;;;;;;;27.25;58.92;99968.64;1679987;84;21558;-70
2021/08/01 06:44:26;;;;;;;13.53;10.17;;;;;;;27.35;59.14;99974.77;1693238;84;21031;-70
2021/08/01 06:46:52;;;;;;;14.57;10.20;;;;;;;27.41;58.63;99968.89;1682635;84;21611;-70
2021/08/01 06:49:19;;;;;;;14.23;9.97;;;;;;;27.42;58.37;99967.74;1679073;84;21114;-70
2021/08/01 06:51:45;;;;;;;12.33;9.20;;;;;;;27.41;58.37;99963.41;1680732;83;21108;-70
2021/08/01 06:54:12;;;;;;;10.13;8.80;;;;;;;27.41;58.08;99964.22;1683309;84;21032;-71
2021/08/01 06:56:40;;;;;;;11.40;8.63;;;;;;;27.41;57.65;99961.48;1692821;83;21044;-70
2021/08/01 06:59:06;;;;;;;11.70;8.17;;;;;;;27.43;57.75;99951.48;1677260;84;21176;-71
2021/08/01 07:01:39;;;;;;;10.77;8.50;;;;;;;27.46;58.14;99946.59;1675388;85;21082;-72
2021/08/01 07:04:06;;;;;;;13.47;8.50;;;;;;;27.54;58.59;99941.31;1681340;84;21138;-70
2021/08/01 07:06:33;;;;;;;10.10;8.73;;;;;;;27.63;58.01;99951.34;1686163;83;21080;-71
2021/08/01 07:09:00;;;;;;;9.03;8.17;;;;;;;27.72;57.95;99953.73;1682367;83;21649;-72
2021/08/01 07:11:27;;;;;;;10.50;8.77;;;;;;;27.78;57.44;99946.14;1700088;83;21184;-72
2021/08/01 07:13:54;;;;;;;12.50;8.27;;;;;;;27.86;57.12;99951.05;1681399;84;21121;-71
2021/08/01 07:16:23;;;;;;;10.97;8.60;;;;;;;27.92;56.51;99952.83;1689672;83;21739;-71
2021/08/01 07:18:51;;;;;;;8.70;7.80;;;;;;;27.97;56.07;99947.75;1685551;84;21029;-70
2021/08/01 07:21:18;;;;;;;9.10;8.17;;;;;;;28.04;55.31;99948.34;1669281;83;21486;-71
2021/08/01 07:23:45;;;;;;;9.37;8.37;;;;;;;28.09;55.65;99950.69;1679680;83;21079;-71
2021/08/01 07:26:12;;;;;;;12.67;8.67;;;;;;;28.06;55.40;99955.59;1686668;84;21355;-71
2021/08/01 07:28:38;;;;;;;9.33;8.43;;;;;;;28.09;56.01;99959.52;1691719;83;21076;-71
2021/08/01 07:31:06;;;;;;;11.57;8.73;;;;;;;28.16;55.67;99963.05;1679577;83;21079;-71
2021/08/01 07:33:32;;;;;;;11.80;9.17;;;;;;;28.29;55.29;99958.74;1694015;83;21096;-69
2021/08/01 07:36:02;;;;;;;10.07;9.07;;;;;;;28.43;54.73;99959.95;1691580;83;21009;-71
2021/08/01 07:38:29;;;;;;;10.07;9.00;;;;;;;28.46;54.20;99959.17;1635974;85;21155;-71
2021/08/01 07:40:55;;;;;;;11.80;8.53;;;;;;;28.53;54.84;99959.19;1688342;83;20996;-71
2021/08/01 07:43:23;;;;;;;9.87;8.87;;;;;;;28.64;54.60;99952.30;1682071;84;21095;-72
2021/08/01 07:45:50;;;;;;;12.87;9.30;;;;;;;28.68;54.64;99955.23;1692896;84;21554;-72
2021/08/01 07:48:17;;;;;;;10.27;9.20;;;;;;;28.80;54.52;99955.42;1686154;84;21528;-71
2021/08/01 07:50:43;;;;;;;9.47;8.57;;;;;;;28.93;53.88;99960.70;1685313;82;21536;-71
2021/08/01 07:53:10;;;;;;;9.60;8.70;;;;;;;29.06;54.08;99958.94;1678934;82;21541;-71
2021/08/01 07:55:37;;;;;;;10.70;8.50;;;;;;;29.08;53.42;99957.93;1685919;84;21554;-68
2021/08/01 07:58:05;;;;;;;11.07;8.83;;;;;;;29.12;53.22;99958.13;1682846;84;21008;-71
2021/08/01 08:00:32;;;;;;;9.50;8.50;;;;;;;29.19;53.34;99960.08;1676633;82;21071;-71
2021/08/01 08:02:59;;;;;;;10.43;8.50;;;;;;;29.34;53.53;99959.42;1683643;84;21535;-70
2021/08/01 08:05:25;;;;;;;9.33;8.43;;;;;;;29.49;53.03;99963.69;1690209;82;21615;-71
2021/08/01 08:07:54;;;;;;;9.23;8.33;;;;;;;29.54;52.92;99961.88;1679077;82;21074;-71
2021/08/01 08:10:21;;;;;;;9.20;8.30;;;;;;;29.57;52.30;99956.17;1681450;82;21520;-69
2021/08/01 08:12:48;;;;;;;12.10;8.53;;;;;;;29.54;52.93;99963.25;1684387;82;21001;-70
2021/08/01 08:15:17;;;;;;;9.03;8.13;;;;;;;29.43;53.19;99962.53;1696019;84;21596;-70
2021/08/01 08:17:45;;;;;;;9.10;8.30;;;;;;;29.39;53.44;99955.67;1679457;84;21083;-71
2021/08/01 08:20:13;;;;;;;9.60;8.67;;;;;;;29.45;53.37;99958.77;1686826;84;21696;-70
2021/08/01 08:22:40;;;;;;;9.43;8.53;;;;;;;29.53;53.58;99952.06;1684459;82;21542;-71
2021/08/01 08:25:09;;;;;;;9.53;8.23;;;;;;;29.60;53.26;99955.41;1681741;84;21553;-71
2021/08/01 08:27:35;;;;;;;9.73;8.75;;;;;;;29.71;52.70;99949.83;1695473;84;21109;-71
2021/08/01 08:30:05;;;;;;;9.35;8.38;;;;;;;29.79;52.62;99947.25;1686716;84;21019;-70
2021/08/01 08:32:34;;;;;;;11.40;7.92;;;;;;;29.86;52.38;99947.20;1688302;82;21555;-71
2021/08/01 08:35:03;;;;;;;10.25;8.15;;;;;;;29.96;51.75;99942.21;1687078;84;21069;-71
2021/08/01 08:37:30;;;;;;;9.75;8.18;;;;;;;30.07;51.38;99945.66;1683857;84;21190;-70
2021/08/01 08:39:58;;;;;;;10.25;8.63;;;;;;;30.13;51.71;99948.77;1676062;84;21182;-70
2021/08/01 08:42:26;;;;;;;9.80;8.40;;;;;;;30.16;51.61;99943.84;1680380;82;21091;-71
2021/08/01 08:44:55;;;;;;;8.93;7.60;;;;;;;30.19;51.50;99947.19;1681682;84;21099;-71
2021/08/01 08:47:22;;;;;;;9.08;7.92;;;;;;;30.25;51.46;99956.59;1677541;84;21111;-72
2021/08/01 08:49:49;;;;;;;10.38;7.30;;;;;;;30.32;51.50;99952.39;1683228;84;21039;-71
2021/08/01 08:52:17;;;;;;;9.45;7.97;;;;;;;30.45;51.04;99949.16;1682487;82;21812;-70
2021/08/01 08:54:51;;;;;;;10.75;7.78;;;;;;;30.56;50.39;99951.98;1682099;84;21151;-73
2021/08/01 08:57:22;;;;;;;9.93;7.90;;;;;;;30.66;49.80;99953.67;1683711;84;21054;-72
2021/08/01 09:00:03;;;;;;;9.65;7.95;;;;;;;30.72;49.97;99957.56;1678595;84;21652;-72
2021/08/01 09:02:29;;;;;;;10.32;7.80;;;;;;;30.81;49.90;99953.77;1684378;82;21111;-71
2021/08/01 09:04:57;;;;;;;10.50;8.65;;;;;;;30.93;50.03;99946.36;1685473;84;21154;-71
2021/08/01 09:07:24;;;;;;;10.58;8.83;;;;;;;31.03;49.16;99952.34;1683946;84;21554;-72
2021/08/01 09:09:53;;;;;;;12.98;9.10;;;;;;;31.15;49.30;99953.00;1687038;84;21104;-71
2021/08/01 09:12:21;;;;;;;10.65;8.83;;;;;;;31.23;48.70;99944.23;1684257;82;21048;-79
2021/08/01 09:14:51;;;;;;;11.13;8.57;;;;;;;31.26;48.70;99948.13;1689455;84;21051;-72
2021/08/01 09:17:37;;;;;;;11.90;9.03;;;;;;;31.24;48.09;99956.83;1671875;84;21562;-73
2021/08/01 09:20:23;;;;;;;9.48;7.95;;;;;;;31.29;49.23;99957.77;1682350;84;21577;-72
2021/08/01 09:23:07;;;;;;;11.53;8.58;;;;;;;31.41;49.32;99959.20;1686471;82;21052;-71
2021/08/01 09:25:40;;;;;;;10.68;8.10;;;;;;;31.42;48.79;99956.63;1686682;84;21120;-70
2021/08/01 09:28:28;;;;;;;19.85;9.45;;;;;;;31.35;49.29;99962.23;1688193;84;21130;-71
2021/08/01 09:30:56;;;;;;;15.53;9.55;;;;;;;31.19;49.48;99950.37;1686138;84;21076;-71
2021/08/01 09:33:41;;;;;;;12.73;8.25;;;;;;;31.04;49.43;99947.61;1682410;82;21641;-72
2021/08/01 09:36:19;;;;;;;15.90;8.33;;;;;;;30.96;49.34;99956.53;1681275;84;21007;-71
2021/08/01 09:38:55;;;;;;;17.35;8.88;;;;;;;31.03;49.28;99956.48;1678966;84;21079;-72
2021/08/01 09:41:34;;;;;;;11.88;9.05;;;;;;;31.17;49.29;99956.91;1690333;84;21080;-72
2021/08/01 09:44:03;;;;;;;13.20;8.40;;;;;;;31.40;48.67;99952.13;1680229;82;21158;-73
2021/08/01 09:46:42;;;;;;;;;;;;;;;31.72;48.31;99953.09;1693325;84;21059;-71
2021/08/01 09:49:17;;;;;;;14.10;8.03;;;;;;;32.04;47.64;99940.80;1684928;84;20229;-71
2021/08/01 09:51:47;;;;;;;9.90;7.25;;;;;;;32.26;46.91;99948.76;1680601;84;21587;-70
2021/08/01 09:54:15;;;;;;;10.98;7.72;;;;;;;32.29;47.06;99950.08;1683812;82;21068;-71
2021/08/01 09:57:00;;;;;;;11.78;8.20;;;;;;;32.24;46.89;99947.78;1692801;84;21618;-70
2021/08/01 09:59:29;;;;;;;11.45;7.28;;;;;;;32.26;46.46;99944.61;1692546;84;21443;-70
2021/08/01 10:01:59;;;;;;;11.35;8.18;;;;;;;32.36;46.03;99948.58;1680481;84;21087;-70
2021/08/01 10:04:34;;;;;;;9.78;7.72;;;;;;;32.52;45.44;99939.66;1687183;82;21510;-71
2021/08/01 10:07:08;;;;;;;11.68;8.00;;;;;;;32.63;45.40;99946.36;1686730;84;20944;-71
2021/08/01 10:09:38;;;;;;;8.83;6.85;;;;;;;32.83;45.51;99939.48;1684598;84;21551;-71
2021/08/01 10:12:06;;;;;;;12.63;7.53;;;;;;;33.04;43.99;99936.92;1690058;84;21023;-71
2021/08/01 10:14:33;;;;;;;13.70;7.58;;;;;;;33.12;44.35;99932.82;1682894;82;21019;-72
2021/08/01 10:17:00;;;;;;;9.30;6.97;;;;;;;33.18;44.02;99928.35;1679945;84;21534;-71
2021/08/01 10:19:27;;;;;;;9.03;7.10;;;;;;;33.22;43.48;99918.59;1675772;84;20956;-72
2021/08/01 10:22:03;;;;;;;9.83;6.17;;;;;;;33.22;43.01;99916.59;1688307;84;21527;-72
2021/08/01 10:24:41;;;;;;;9.13;6.70;;;;;;;33.23;41.74;99914.60;1684248;82;21017;-71
2021/08/01 10:27:09;;;;;;;9.33;6.78;;;;;;;33.26;42.14;99913.14;1690990;84;21061;-71
2021/08/01 10:29:54;;;;;;;8.48;6.45;;;;;;;33.21;42.59;99905.36;1692950;84;21048;-71
2021/08/01 10:32:22;;;;;;;6.70;5.55;;;;;;;33.31;42.18;99900.20;1684523;84;21571;-70
2021/08/01 10:35:02;;;;;;;10.32;6.47;;;;;;;33.43;39.96;99903.50;1683965;82;21201;-71
2021/08/01 10:37:37;;;;;;;7.27;5.80;;;;;;;33.55;41.69;99899.49;1682748;84;21131;-71
2021/08/01 10:40:07;;;;;;;7.95;5.50;;;;;;;33.69;40.80;99903.14;1688072;84;21098;-70
2021/08/01 10:42:35;;;;;;;10.03;6.12;;;;;;;33.66;41.08;99910.31;1690667;84;21086;-71
2021/08/01 10:45:01;;;;;;;6.30;5.65;;;;;;;33.63;40.58;99908.44;1682488;84;21066;-70
2021/08/01 10:47:28;;;;;;;9.03;5.53;;;;;;;33.60;40.21;99908.69;1685515;84;21158;-70
2021/08/01 10:49:55;;;;;;;7.62;5.25;;;;;;;33.53;40.22;99907.47;1694853;84;21515;-70
2021/08/01 10:52:28;;;;;;;11.70;5.95;;;;;;;33.57;40.39;99912.31;1687105;84;21100;-71
2021/08/01 10:54:58;;;;;;;6.87;5.03;;;;;;;33.67;40.57;99913.28;1680372;82;21058;-71
2021/08/01 10:57:26;;;;;;;7.47;5.40;;;;;;;33.78;39.73;99913.80;1687219;84;21165;-70
2021/08/01 10:59:57;;;;;;;7.92;5.12;;;;;;;33.88;39.56;99907.84;1689749;82;21142;-70
2021/08/01 11:02:28;;;;;;;11.30;5.40;;;;;;;33.97;39.39;99907.25;1686997;84;21170;-71
2021/08/01 11:04:56;;;;;;;7.67;4.97;;;;;;;34.01;38.91;99907.34;1684394;82;21008;-70
2021/08/01 11:07:31;;;;;;;8.15;5.65;;;;;;;34.01;39.79;99909.34;1688223;84;21239;-71
2021/08/01 11:10:17;;;;;;;8.40;5.12;;;;;;;34.03;39.15;99900.00;1681518;83;21104;-70
2021/08/01 11:12:45;;;;;;;7.12;5.37;;;;;;;34.09;39.03;99895.47;1688237;82;21947;-71
2021/08/01 11:15:14;;;;;;;9.38;5.40;;;;;;;34.13;39.65;99892.03;1687886;82;21051;-70
2021/08/01 11:17:51;;;;;;;9.13;5.37;;;;;;;34.17;39.53;99885.78;1688956;84;21032;-72
2021/08/01 11:20:26;;;;;;;10.48;5.92;;;;;;;34.20;38.29;99877.98;1686605;84;21684;-70
2021/08/01 11:22:58;;;;;;;6.47;5.17;;;;;;;33.97;38.82;99881.70;1687587;84;21111;-70
2021/08/01 11:25:32;;;;;;;11.50;6.42;;;;;;;33.78;39.09;99893.64;1684729;84;21560;-71
2021/08/01 11:28:17;;;;;;;8.45;5.62;;;;;;;33.53;39.80;99896.97;1687898;84;21059;-70
2021/08/01 11:31:01;;;;;;;7.72;5.62;;;;;;;33.25;40.23;99896.98;1687284;84;21090;-70
2021/08/01 11:33:38;;;;;;;9.20;6.25;;;;;;;32.92;40.61;99896.83;1683203;84;21622;-70
2021/08/01 11:36:17;;;;;;;8.30;6.17;;;;;;;32.75;41.34;99897.97;1681812;82;21095;-70
2021/08/01 11:38:56;;;;;;;9.98;6.15;;;;;;;32.72;42.20;99891.91;1683246;82;21573;-70